Positano Jet — IFTU — position and weather

sailwx.info

Track history (hours):
 
Tides and Currents Weather Stations Pressure Air Temp Water Temp Dewpoint Dewpoint Depression Visibility Wind Speed Wind Dir Waves Ship Positions

Positano Jet

Last reported at 2015-May-05 16:33 UTC. Time now 2015-May-06 02:23 UTC.
Position N 40°37' E 014°29'.

Length 23 m; draft 2 m.

Type: Ship. MMSI: 247160800.

Date/timePositionNaut miles runAvg speedWind from/ knotsBaromVisibWave heightAir tempDewpointWater temp
2015-May-05 16:33N 40°37' E 014°29'9 9.4
2015-May-05 15:33N 40°34' E 014°17'4 2.1
2015-May-05 13:30N 40°34' E 014°23'7 6.9
2015-May-05 12:33N 40°33' E 014°14'0 0.0
2015-May-05 11:33N 40°33' E 014°14'0 0.0
2015-May-05 10:33N 40°33' E 014°14'0 0.0
2015-May-05 09:33N 40°33' E 014°14'12 9.0
2015-May-05 08:14N 40°38' E 014°29'1 0.0
2015-May-04 16:33N 40°37' E 014°28'1010.2
2015-May-04 15:33N 40°34' E 014°16'6 3.0
2015-May-04 13:32N 40°35' E 014°24'7 7.5
2015-May-04 12:33N 40°33' E 014°14'0 0.0
2015-May-04 11:33N 40°33' E 014°14'0 0.0
2015-May-04 10:33N 40°33' E 014°14'0 0.0
2015-May-04 09:33N 40°33' E 014°14'12 8.9
2015-May-04 08:12N 40°38' E 014°29'2 0.1
2015-May-03 16:34N 40°36' E 014°27'9 9.4
2015-May-03 15:33N 40°34' E 014°15'7 3.3
2015-May-03 13:33N 40°34' E 014°23'6 5.7
2015-May-03 12:33N 40°34' E 014°16'1312.7
2015-May-03 11:33N 40°43' E 014°28'0 0.0
2015-May-03 10:33N 40°43' E 014°28'9 8.8
2015-May-03 09:33N 40°38' E 014°19'7 7.0
2015-May-03 08:34N 40°37' E 014°28'9 0.6
2015-May-02 16:06N 40°34' E 014°16'1 1.4
2015-May-02 15:32N 40°34' E 014°15'11 7.6
2015-May-02 14:03N 40°38' E 014°29'5 9.9
2015-May-02 13:34N 40°35' E 014°24'8 7.5
2015-May-02 12:33N 40°33' E 014°14'0 0.0
2015-May-02 11:32N 40°33' E 014°14'0 0.0
2015-May-02 10:32N 40°33' E 014°14'0 0.0
2015-May-02 09:10N 40°33' E 014°14'5 0.3
2015-May-01 16:17N 40°34' E 014°21'5 6.4
2015-May-01 15:33N 40°34' E 014°15'7 3.5
2015-May-01 13:33N 40°34' E 014°24'8 6.5
2015-May-01 12:23N 40°33' E 014°14'0 0.0
2015-May-01 11:13N 40°33' E 014°14'0 0.0
2015-May-01 10:23N 40°33' E 014°14'0 0.0
2015-May-01 09:33N 40°33' E 014°14'10 0.6
2015-Apr-30 16:29N 40°36' E 014°27'9 9.6
2015-Apr-30 15:33N 40°34' E 014°16'3 1.3
2015-Apr-30 13:23N 40°34' E 014°19'4 4.5
2015-Apr-30 12:33N 40°33' E 014°14'0 0.0
2015-Apr-30 11:33N 40°33' E 014°14'0 0.0
2015-Apr-30 10:28N 40°33' E 014°14'0 0.0
2015-Apr-30 09:32N 40°33' E 014°14'1111.2
2015-Apr-30 08:32N 40°37' E 014°28'1 0.0
2015-Apr-29 13:26N 40°38' E 014°29'5 6.1
2015-Apr-29 12:33N 40°39' E 014°22'6 6.3
2015-Apr-29 11:33N 40°43' E 014°29'0 0.0
2015-Apr-29 10:34N 40°43' E 014°29'0 0.5
2015-Apr-29 09:33N 40°43' E 014°28'1 0.6
2015-Apr-29 08:27N 40°42' E 014°28'1 0.0
2015-Apr-27 12:13N 40°43' E 014°28'0 0.0
2015-Apr-27 11:12N 40°43' E 014°28'1 0.8
2015-Apr-27 10:33N 40°43' E 014°28'9 9.3
2015-Apr-27 09:34N 40°37' E 014°19'8 7.7
2015-Apr-27 08:32N 40°38' E 014°29'0 0.0
2015-Apr-26 16:33N 40°37' E 014°29'1111.2
2015-Apr-26 15:34N 40°34' E 014°15'7 3.7
2015-Apr-26 13:33N 40°35' E 014°25'8 7.6
2015-Apr-26 12:30N 40°33' E 014°14'0 0.0
2015-Apr-26 11:33N 40°33' E 014°14'0 0.0
2015-Apr-26 10:33N 40°33' E 014°14'0 0.0
2015-Apr-26 09:33N 40°33' E 014°14'1111.2
2015-Apr-26 08:33N 40°37' E 014°29'  
Track history (hours):
 
Tides and Currents Weather Stations Pressure Air Temp Water Temp Dewpoint Dewpoint Depression Visibility Wind Speed Wind Dir Waves Ship Positions

Positano Jet

Last reported at 2015-May-05 16:33 UTC. Time now 2015-May-06 02:23 UTC.
Position N 40°37' E 014°29'.

Length 23 m; draft 2 m.

Type: Ship. MMSI: 247160800.

Date/timePositionNaut miles runAvg speedWind from/ knotsBaromVisibWave heightAir tempDewpointWater temp
2015-May-05 16:33N 40°37' E 014°29'9 9.4
2015-May-05 15:33N 40°34' E 014°17'4 2.1
2015-May-05 13:30N 40°34' E 014°23'7 6.9
2015-May-05 12:33N 40°33' E 014°14'0 0.0
2015-May-05 11:33N 40°33' E 014°14'0 0.0
2015-May-05 10:33N 40°33' E 014°14'0 0.0
2015-May-05 09:33N 40°33' E 014°14'12 9.0
2015-May-05 08:14N 40°38' E 014°29'1 0.0
2015-May-04 16:33N 40°37' E 014°28'1010.2
2015-May-04 15:33N 40°34' E 014°16'6 3.0
2015-May-04 13:32N 40°35' E 014°24'7 7.5
2015-May-04 12:33N 40°33' E 014°14'0 0.0
2015-May-04 11:33N 40°33' E 014°14'0 0.0
2015-May-04 10:33N 40°33' E 014°14'0 0.0
2015-May-04 09:33N 40°33' E 014°14'12 8.9
2015-May-04 08:12N 40°38' E 014°29'2 0.1
2015-May-03 16:34N 40°36' E 014°27'9 9.4
2015-May-03 15:33N 40°34' E 014°15'7 3.3
2015-May-03 13:33N 40°34' E 014°23'6 5.7
2015-May-03 12:33N 40°34' E 014°16'1312.7
2015-May-03 11:33N 40°43' E 014°28'0 0.0
2015-May-03 10:33N 40°43' E 014°28'9 8.8
2015-May-03 09:33N 40°38' E 014°19'7 7.0
2015-May-03 08:34N 40°37' E 014°28'9 0.6
2015-May-02 16:06N 40°34' E 014°16'1 1.4
2015-May-02 15:32N 40°34' E 014°15'11 7.6
2015-May-02 14:03N 40°38' E 014°29'5 9.9
2015-May-02 13:34N 40°35' E 014°24'8 7.5
2015-May-02 12:33N 40°33' E 014°14'0 0.0
2015-May-02 11:32N 40°33' E 014°14'0 0.0
2015-May-02 10:32N 40°33' E 014°14'0 0.0
2015-May-02 09:10N 40°33' E 014°14'5 0.3
2015-May-01 16:17N 40°34' E 014°21'5 6.4
2015-May-01 15:33N 40°34' E 014°15'7 3.5
2015-May-01 13:33N 40°34' E 014°24'8 6.5
2015-May-01 12:23N 40°33' E 014°14'0 0.0
2015-May-01 11:13N 40°33' E 014°14'0 0.0
2015-May-01 10:23N 40°33' E 014°14'0 0.0
2015-May-01 09:33N 40°33' E 014°14'10 0.6
2015-Apr-30 16:29N 40°36' E 014°27'9 9.6
2015-Apr-30 15:33N 40°34' E 014°16'3 1.3
2015-Apr-30 13:23N 40°34' E 014°19'4 4.5
2015-Apr-30 12:33N 40°33' E 014°14'0 0.0
2015-Apr-30 11:33N 40°33' E 014°14'0 0.0
2015-Apr-30 10:28N 40°33' E 014°14'0 0.0
2015-Apr-30 09:32N 40°33' E 014°14'1111.2
2015-Apr-30 08:32N 40°37' E 014°28'1 0.0
2015-Apr-29 13:26N 40°38' E 014°29'5 6.1
2015-Apr-29 12:33N 40°39' E 014°22'6 6.3
2015-Apr-29 11:33N 40°43' E 014°29'0 0.0
2015-Apr-29 10:34N 40°43' E 014°29'0 0.5
2015-Apr-29 09:33N 40°43' E 014°28'1 0.6
2015-Apr-29 08:27N 40°42' E 014°28'1 0.0
2015-Apr-27 12:13N 40°43' E 014°28'0 0.0
2015-Apr-27 11:12N 40°43' E 014°28'1 0.8
2015-Apr-27 10:33N 40°43' E 014°28'9 9.3
2015-Apr-27 09:34N 40°37' E 014°19'8 7.7
2015-Apr-27 08:32N 40°38' E 014°29'0 0.0
2015-Apr-26 16:33N 40°37' E 014°29'1111.2
2015-Apr-26 15:34N 40°34' E 014°15'7 3.7
2015-Apr-26 13:33N 40°35' E 014°25'8 7.6
2015-Apr-26 12:30N 40°33' E 014°14'0 0.0
2015-Apr-26 11:33N 40°33' E 014°14'0 0.0
2015-Apr-26 10:33N 40°33' E 014°14'0 0.0
2015-Apr-26 09:33N 40°33' E 014°14'1111.2
2015-Apr-26 08:33N 40°37' E 014°29'  

Dump ship's entire track history